createdAt,value
2018-09-25T15:31:23.374Z,952.7
2018-09-25T15:32:23.289Z,952.7
2018-09-25T15:33:24.416Z,952.7
2018-09-25T15:34:25.006Z,952.6
2018-09-25T15:35:26.350Z,952.7
2018-09-25T15:36:26.309Z,952.7
2018-09-25T15:37:26.218Z,952.1
2018-09-25T15:38:26.117Z,952.6
2018-09-25T15:39:26.038Z,952.6
2018-09-25T15:40:26.081Z,952.6
2018-09-25T15:41:27.327Z,952.7
2018-09-25T15:42:27.305Z,952.6
2018-09-25T15:43:27.243Z,952.6
2018-09-25T15:44:27.141Z,952.6
2018-09-25T15:45:27.139Z,952.5
2018-09-25T15:46:27.077Z,952.5
2018-09-25T15:47:26.993Z,952.5
2018-09-25T15:48:26.920Z,952.5
2018-09-25T15:49:27.376Z,952.5
2018-09-25T15:50:27.266Z,952.5
2018-09-25T15:51:27.623Z,952.4
2018-09-25T15:52:27.362Z,952.5
2018-09-25T15:53:27.102Z,952.5
2018-09-25T15:54:26.911Z,952.6
2018-09-25T15:55:26.667Z,952.5
2018-09-25T15:56:26.425Z,952.5
2018-09-25T15:57:26.164Z,952.5
2018-09-25T15:58:25.906Z,952.4
2018-09-25T15:59:25.638Z,952.5
2018-09-25T16:00:25.667Z,952.4
2018-09-25T16:01:26.083Z,952.6
2018-09-25T16:02:25.996Z,952.6
2018-09-25T16:03:25.896Z,952.7
2018-09-25T16:04:25.913Z,952.7
2018-09-25T16:05:25.822Z,952.7
2018-09-25T16:06:25.758Z,952.7
2018-09-25T16:07:25.988Z,952.8
2018-09-25T16:08:25.918Z,952.8
2018-09-25T16:09:25.825Z,952.6
2018-09-25T16:10:25.741Z,952.9
2018-09-25T16:11:26.131Z,952.8
2018-09-25T16:12:26.106Z,952.9
2018-09-25T16:13:26.027Z,953
2018-09-25T16:14:25.937Z,952.9
2018-09-25T16:15:25.847Z,952.9
2018-09-25T16:16:25.798Z,953
2018-09-25T16:17:25.725Z,953
2018-09-25T16:18:25.637Z,952.9
2018-09-25T16:19:25.549Z,952.9
2018-09-25T16:20:25.452Z,953
2018-09-25T16:21:25.823Z,953
2018-09-25T16:22:25.744Z,953
2018-09-25T16:23:25.479Z,953
2018-09-25T16:24:25.240Z,953
2018-09-25T16:25:25.577Z,953
2018-09-25T16:26:25.315Z,953
2018-09-25T16:27:25.081Z,953
2018-09-25T16:28:24.843Z,953.1
2018-09-25T16:29:24.582Z,953.2
2018-09-25T16:30:24.321Z,952.8
2018-09-25T16:31:24.668Z,953.1
2018-09-25T16:32:24.899Z,953
2018-09-25T16:33:24.853Z,952.9
2018-09-25T16:34:24.752Z,953
2018-09-25T16:35:24.965Z,952.9
2018-09-25T16:36:24.916Z,953.1
2018-09-25T16:37:24.858Z,953.1
2018-09-25T16:38:24.753Z,953.1
2018-09-25T16:39:24.686Z,953
2018-09-25T16:40:24.594Z,952.5
2018-09-25T16:41:24.979Z,953
2018-09-25T16:42:24.909Z,953
2018-09-25T16:43:24.655Z,953
2018-09-25T16:44:24.397Z,952.9
2018-09-25T16:45:24.152Z,953
2018-09-25T16:46:24.122Z,953.1
2018-09-25T16:47:24.164Z,953
2018-09-25T16:48:23.958Z,953.1
2018-09-25T16:49:23.689Z,953.1
2018-09-25T16:50:23.442Z,953.1
2018-09-25T16:51:24.019Z,953.1
2018-09-25T16:52:23.952Z,953
2018-09-25T16:53:23.862Z,953.1
2018-09-25T16:54:23.786Z,953
2018-09-25T16:55:23.688Z,953.1
2018-09-25T16:56:23.592Z,953.1
2018-09-25T16:57:23.515Z,953.1
2018-09-25T16:58:23.447Z,953.2
2018-09-25T16:59:23.363Z,953.2
2018-09-25T17:00:23.276Z,953.1
2018-09-25T17:01:23.636Z,953.2
2018-09-25T17:02:23.566Z,953.2
2018-09-25T17:03:23.490Z,953.2
2018-09-25T17:04:23.396Z,953.2
2018-09-25T17:05:23.312Z,953.1
2018-09-25T17:06:23.263Z,953.2
2018-09-25T17:07:23.203Z,953.1
2018-09-25T17:08:23.154Z,953.2
2018-09-25T17:09:23.079Z,953.1
2018-09-25T17:10:23.055Z,952.8
2018-09-25T17:11:23.424Z,953.1
2018-09-25T17:12:23.348Z,953.1
2018-09-25T17:13:26.540Z,953.2
2018-09-25T17:14:26.472Z,953
2018-09-25T17:15:26.389Z,953.1
2018-09-25T17:16:26.299Z,953.1
2018-09-25T17:17:26.196Z,953.1
2018-09-25T17:18:26.109Z,953.1
2018-09-25T17:19:26.018Z,953.1
2018-09-25T17:20:25.926Z,953.1
2018-09-25T17:21:26.283Z,953.1
2018-09-25T17:22:26.184Z,953.2
2018-09-25T17:23:26.098Z,953.1
2018-09-25T17:24:26.001Z,953.2
2018-09-25T17:25:25.959Z,953.2
2018-09-25T17:26:25.887Z,953.2
2018-09-25T17:27:25.814Z,953.2
2018-09-25T17:28:25.731Z,953.2
2018-09-25T17:29:26.317Z,953.2
2018-09-25T17:30:26.272Z,953.2
2018-09-25T17:31:26.656Z,953.3
2018-09-25T17:32:26.575Z,953.2
2018-09-25T17:33:26.530Z,953.2
2018-09-25T17:34:26.435Z,953.3
2018-09-25T17:35:26.336Z,953.3
2018-09-25T17:36:26.242Z,953.3
2018-09-25T17:37:26.162Z,953.3
2018-09-25T17:38:26.078Z,953.4
2018-09-25T17:39:26.016Z,953.4
2018-09-25T17:40:26.055Z,953.3
2018-09-25T17:41:26.431Z,953.3
2018-09-25T17:42:26.170Z,953.4
2018-09-25T17:43:25.922Z,953.4
2018-09-25T17:44:28.564Z,953.5
2018-09-25T17:45:28.321Z,953.4
2018-09-25T17:46:28.074Z,953.4
2018-09-25T17:47:27.820Z,953.4
2018-09-25T17:48:27.585Z,953.4
2018-09-25T17:49:27.353Z,953.5
2018-09-25T17:50:27.092Z,953.5
2018-09-25T17:51:27.536Z,953.4
2018-09-25T17:52:27.449Z,953.6
2018-09-25T17:53:27.386Z,953.6
2018-09-25T17:54:27.323Z,953.6
2018-09-25T17:55:27.230Z,953.6
2018-09-25T17:56:27.147Z,953.5
2018-09-25T17:57:27.069Z,953.5
2018-09-25T17:58:27.304Z,953.5
2018-09-25T17:59:27.233Z,953.5
2018-09-25T18:00:27.146Z,953.5
2018-09-25T18:01:27.505Z,953.4
2018-09-25T18:02:27.254Z,953.5
2018-09-25T18:03:26.992Z,953.4
2018-09-25T18:04:26.747Z,953.5
2018-09-25T18:05:26.479Z,953.5
2018-09-25T18:06:26.213Z,953.6
2018-09-25T18:07:25.958Z,953.5
2018-09-25T18:08:25.693Z,953.5
2018-09-25T18:09:25.465Z,953.5
2018-09-25T18:10:25.199Z,953.5
2018-09-25T18:11:25.570Z,953.5
2018-09-25T18:12:25.669Z,953.6
2018-09-25T18:13:25.578Z,953.5
2018-09-25T18:14:25.501Z,953.5
2018-09-25T18:15:25.444Z,953.5
2018-09-25T18:16:25.358Z,953.4
2018-09-25T18:17:25.265Z,953.4
2018-09-25T18:18:25.183Z,953.4
2018-09-25T18:19:25.122Z,953.5
2018-09-25T18:20:25.047Z,953.4
2018-09-25T18:21:25.819Z,953.5
2018-09-25T18:22:25.763Z,953.5
2018-09-25T18:23:25.671Z,953.5
2018-09-25T18:24:25.577Z,953.5
2018-09-25T18:25:25.511Z,953.5
2018-09-25T18:26:25.433Z,953.5
2018-09-25T18:27:25.355Z,953.5
2018-09-25T18:28:25.597Z,953.5
2018-09-25T18:29:25.505Z,953.5
2018-09-25T18:30:25.532Z,953.5
2018-09-25T18:31:25.887Z,953.6
2018-09-25T18:32:25.975Z,953.5
2018-09-25T18:33:26.248Z,953.6
2018-09-25T18:34:26.174Z,953.5
2018-09-25T18:35:26.098Z,953.6
2018-09-25T18:36:25.995Z,953.4
2018-09-25T18:37:25.905Z,953.5
2018-09-25T18:38:25.834Z,953.6
2018-09-25T18:39:25.744Z,953.5
2018-09-25T18:40:25.670Z,953.5
2018-09-25T18:41:26.056Z,953.5
2018-09-25T18:42:26.221Z,953.5
2018-09-25T18:43:26.386Z,953.6
2018-09-25T18:44:26.306Z,953.6
2018-09-25T18:45:26.231Z,953.7
2018-09-25T18:46:26.145Z,953.6
2018-09-25T18:47:26.074Z,953.5
2018-09-25T18:48:26.000Z,953.6
2018-09-25T18:49:25.953Z,953.6
2018-09-25T18:50:26.117Z,953.6
2018-09-25T18:51:26.391Z,953.6
2018-09-25T18:52:26.144Z,953.6
2018-09-25T18:53:26.050Z,953.6
2018-09-25T18:54:25.899Z,953.5
2018-09-25T18:55:25.637Z,953.5
2018-09-25T18:56:25.391Z,953.6
2018-09-25T18:57:25.137Z,953.5
2018-09-25T18:58:24.886Z,953.6
2018-09-25T18:59:24.785Z,953.5
2018-09-25T19:00:24.563Z,953.6
2018-09-25T19:01:24.943Z,953.4
2018-09-25T19:02:24.892Z,953.7
2018-09-25T19:03:24.816Z,953.7
2018-09-25T19:04:24.712Z,953.6
2018-09-25T19:05:25.201Z,953.7
2018-09-25T19:06:25.205Z,953.7
2018-09-25T19:07:25.131Z,953.7
2018-09-25T19:08:25.052Z,953.7
2018-09-25T19:09:24.980Z,953.6
2018-09-25T19:10:24.876Z,953.7
2018-09-25T19:11:25.223Z,953.7
2018-09-25T19:12:25.133Z,953.8
2018-09-25T19:13:25.047Z,953.8
2018-09-25T19:14:24.963Z,953.7
2018-09-25T19:15:25.527Z,953.7
2018-09-25T19:16:25.513Z,953.7
2018-09-25T19:17:25.433Z,953.7
2018-09-25T19:18:25.334Z,953.8
2018-09-25T19:19:25.256Z,953.6
2018-09-25T19:20:25.189Z,953.7
2018-09-25T19:21:25.854Z,953.8
2018-09-25T19:22:25.620Z,953.8
2018-09-25T19:23:25.615Z,953.8
2018-09-25T19:24:25.355Z,953.8
2018-09-25T19:25:25.092Z,953.7
2018-09-25T19:26:24.831Z,953.8
2018-09-25T19:27:24.767Z,953.9
2018-09-25T19:28:24.581Z,953.9
2018-09-25T19:29:24.320Z,953.9
2018-09-25T19:30:24.066Z,954
2018-09-25T19:31:24.415Z,953.9
2018-09-25T19:32:24.343Z,954
2018-09-25T19:33:24.242Z,954
2018-09-25T19:34:24.142Z,954.1
2018-09-25T19:35:24.040Z,954
2018-09-25T19:36:23.963Z,954
2018-09-25T19:37:23.912Z,954.1
2018-09-25T19:38:23.822Z,954
2018-09-25T19:39:23.719Z,954.1
2018-09-25T19:40:23.621Z,954.1
2018-09-25T19:41:24.003Z,954.1
2018-09-25T19:42:23.931Z,954.2
2018-09-25T19:43:23.840Z,954.1
2018-09-25T19:44:23.763Z,954.2
2018-09-25T19:45:23.659Z,954.1
2018-09-25T19:46:23.574Z,954.2
2018-09-25T19:47:23.497Z,954.1
2018-09-25T19:48:23.413Z,954.1
2018-09-25T19:49:23.315Z,953.9
2018-09-25T19:50:23.221Z,954.2
2018-09-25T19:51:23.584Z,954.1
2018-09-25T19:52:23.520Z,954.1
2018-09-25T19:53:23.500Z,954.2
2018-09-25T19:54:23.402Z,954.3
2018-09-25T19:55:23.317Z,954.2
2018-09-25T19:56:23.739Z,954.2
2018-09-25T19:57:23.708Z,954.3
2018-09-25T19:58:23.658Z,954.3
2018-09-25T19:59:23.638Z,954.2
2018-09-25T20:00:23.549Z,954.2
2018-09-25T20:01:23.907Z,953.7
2018-09-25T20:02:23.819Z,954.1
2018-09-25T20:03:23.743Z,954.2
2018-09-25T20:04:23.653Z,954.2
2018-09-25T20:05:23.572Z,954.3
2018-09-25T20:06:23.727Z,954.1
2018-09-25T20:07:23.651Z,954.2
2018-09-25T20:08:23.581Z,954.2
2018-09-25T20:09:23.491Z,954.3
2018-09-25T20:10:23.399Z,954.3
2018-09-25T20:11:23.749Z,954.3
2018-09-25T20:12:23.495Z,954.2
2018-09-25T20:13:23.553Z,954.3
2018-09-25T20:14:23.326Z,954.2
2018-09-25T20:15:23.074Z,954.1
2018-09-25T20:16:22.818Z,954.3
2018-09-25T20:17:22.568Z,954.2
2018-09-25T20:18:22.326Z,954.2
2018-09-25T20:19:22.516Z,954.2
2018-09-25T20:20:22.283Z,954.2
2018-09-25T20:21:22.483Z,954.2
2018-09-25T20:22:22.216Z,954.2
2018-09-25T20:23:21.971Z,954.2
2018-09-25T20:24:21.710Z,953.7
2018-09-25T20:25:21.443Z,954.3
2018-09-25T20:26:21.179Z,954.2
2018-09-25T20:27:20.899Z,954.3
2018-09-25T20:28:20.646Z,954.2
2018-09-25T20:29:20.715Z,954.2
2018-09-25T20:30:20.465Z,954.3
2018-09-25T20:31:20.831Z,954.2
2018-09-25T20:32:20.749Z,954.3
2018-09-25T20:33:20.684Z,954.2
2018-09-25T20:34:20.595Z,954.2
2018-09-25T20:35:20.499Z,954.3
2018-09-25T20:36:20.420Z,954.2
2018-09-25T20:37:20.615Z,954.2
2018-09-25T20:38:20.563Z,954.2
2018-09-25T20:39:20.492Z,954.2
2018-09-25T20:40:20.400Z,954.3
2018-09-25T20:41:20.757Z,954.2
2018-09-25T20:42:20.661Z,954.2
2018-09-25T20:43:21.332Z,954.2
2018-09-25T20:44:21.338Z,954.2
2018-09-25T20:45:21.250Z,954.2
2018-09-25T20:46:21.166Z,954.2
2018-09-25T20:47:21.054Z,954.2
2018-09-25T20:48:20.960Z,954.2
2018-09-25T20:49:20.892Z,954.2
2018-09-25T20:50:20.798Z,954.2
2018-09-25T20:51:21.134Z,954.3
2018-09-25T20:52:21.050Z,954.3
2018-09-25T20:53:20.963Z,954.3
2018-09-25T20:54:20.893Z,954.2
2018-09-25T20:55:21.306Z,954.2
2018-09-25T20:56:21.230Z,954.2
2018-09-25T20:57:21.142Z,954.2
2018-09-25T20:58:21.076Z,954.2
2018-09-25T20:59:20.999Z,954.2
2018-09-25T21:00:20.909Z,954
2018-09-25T21:01:21.539Z,954.2
2018-09-25T21:02:21.452Z,954.1
2018-09-25T21:03:21.344Z,954.2
2018-09-25T21:04:21.255Z,954.2
2018-09-25T21:05:21.156Z,954.1
2018-09-25T21:06:21.076Z,954.2
2018-09-25T21:07:21.000Z,954.2
2018-09-25T21:08:20.916Z,954.2
2018-09-25T21:09:21.376Z,954.2
2018-09-25T21:10:21.303Z,954.1
2018-09-25T21:11:21.648Z,954.2
2018-09-25T21:12:21.560Z,954.2
2018-09-25T21:13:21.474Z,954.3
2018-09-25T21:14:21.400Z,954.3
2018-09-25T21:15:21.745Z,954.3
2018-09-25T21:16:21.716Z,954.2
2018-09-25T21:17:21.618Z,954.3
2018-09-25T21:18:21.568Z,954.3
2018-09-25T21:19:21.463Z,954.3
2018-09-25T21:20:21.368Z,954.2
2018-09-25T21:21:22.448Z,954.3
2018-09-25T21:22:22.363Z,954.2
2018-09-25T21:23:22.260Z,954.2
2018-09-25T21:24:22.173Z,954.3
2018-09-25T21:25:22.101Z,954.3
2018-09-25T21:26:22.007Z,954.2
2018-09-25T21:27:22.548Z,954.3
2018-09-25T21:28:22.631Z,954.2
2018-09-25T21:29:22.546Z,954.2
2018-09-25T21:30:22.471Z,954.3
2018-09-25T21:31:22.822Z,954.2
2018-09-25T21:32:22.725Z,954.2
2018-09-25T21:33:23.256Z,954.2
2018-09-25T21:34:23.166Z,954.3
2018-09-25T21:35:23.082Z,954.3
2018-09-25T21:36:22.992Z,954.2
2018-09-25T21:37:22.901Z,954.2
2018-09-25T21:38:22.825Z,954.3
2018-09-25T21:39:23.315Z,954.2
2018-09-25T21:40:23.257Z,954.2
2018-09-25T21:41:23.609Z,954.2
2018-09-25T21:42:23.523Z,954.2
2018-09-25T21:43:23.418Z,954.1
2018-09-25T21:44:23.344Z,954.2
2018-09-25T21:45:23.911Z,954.2
2018-09-25T21:46:23.847Z,954.2
2018-09-25T21:47:23.758Z,954.2
2018-09-25T21:48:23.716Z,954.1
2018-09-25T21:49:23.609Z,954.1
2018-09-25T21:50:23.562Z,954
2018-09-25T21:51:27.087Z,954.1
2018-09-25T21:52:27.033Z,954.1
2018-09-25T21:53:26.777Z,954
2018-09-25T21:54:26.518Z,953.8
2018-09-25T21:55:26.294Z,954
2018-09-25T21:56:26.029Z,954
2018-09-25T21:57:27.278Z,954.1
2018-09-25T21:58:27.192Z,954
2018-09-25T21:59:26.931Z,954
2018-09-25T22:00:26.674Z,954
2018-09-25T22:01:27.022Z,954
2018-09-25T22:02:26.946Z,954
2018-09-25T22:03:26.847Z,953.9
2018-09-25T22:04:26.754Z,953.9
2018-09-25T22:05:26.668Z,953.8
2018-09-25T22:06:26.582Z,953.8
2018-09-25T22:07:26.507Z,953.9
2018-09-25T22:08:26.409Z,953.9
2018-09-25T22:09:26.299Z,953.8
2018-09-25T22:10:26.212Z,953.9
2018-09-25T22:11:26.728Z,953.8
2018-09-25T22:12:26.635Z,953.9
2018-09-25T22:13:26.538Z,953.3
2018-09-25T22:14:26.434Z,953.8
2018-09-25T22:15:26.344Z,953.8
2018-09-25T22:16:26.260Z,953.8
2018-09-25T22:17:26.165Z,953.8
2018-09-25T22:18:26.061Z,953.8
2018-09-25T22:19:25.961Z,953.3
2018-09-25T22:20:25.874Z,953.9
2018-09-25T22:21:26.072Z,953.4
2018-09-25T22:22:25.814Z,953.8
2018-09-25T22:23:25.553Z,953.8
2018-09-25T22:24:25.290Z,953.8
2018-09-25T22:25:25.024Z,953.7
2018-09-25T22:26:24.770Z,953.7
2018-09-25T22:27:24.511Z,953.7
2018-09-25T22:28:24.242Z,953.7
2018-09-25T22:29:23.975Z,953.7
2018-09-25T22:30:23.709Z,953.6
2018-09-25T22:31:23.912Z,953.6
2018-09-25T22:32:23.661Z,953.6
2018-09-25T22:33:23.394Z,953.6
2018-09-25T22:34:23.123Z,953.6
2018-09-25T22:35:22.865Z,953.6
2018-09-25T22:36:22.592Z,953.2
2018-09-25T22:37:22.344Z,953.6
2018-09-25T22:38:22.075Z,953.5
2018-09-25T22:39:21.897Z,953.3
2018-09-25T22:40:21.629Z,953.6
2018-09-25T22:41:21.814Z,953.6
2018-09-25T22:42:21.569Z,953.6
2018-09-25T22:43:21.326Z,953.6
2018-09-25T22:44:21.059Z,953.5
2018-09-25T22:45:20.799Z,953.5
2018-09-25T22:46:20.539Z,953.4
2018-09-25T22:47:20.281Z,953.5
2018-09-25T22:48:20.013Z,953.4
2018-09-25T22:49:19.763Z,953.5
2018-09-25T22:50:19.497Z,953.4
2018-09-25T22:51:19.814Z,953.3
2018-09-25T22:52:19.714Z,953.2
2018-09-25T22:53:19.620Z,953.3
2018-09-25T22:54:19.543Z,953.1
2018-09-25T22:55:19.445Z,953.1
2018-09-25T22:56:19.337Z,953.2
2018-09-25T22:57:19.258Z,953.2
2018-09-25T22:58:19.170Z,953.3
2018-09-25T22:59:19.077Z,953.3
2018-09-25T23:00:18.979Z,953.1
2018-09-25T23:01:19.318Z,953.2
2018-09-25T23:02:19.246Z,953.1
2018-09-25T23:03:19.147Z,953.1
2018-09-25T23:04:19.038Z,953.1
2018-09-25T23:05:18.963Z,953.1
2018-09-25T23:06:18.858Z,953
2018-09-25T23:07:18.771Z,953
2018-09-25T23:08:18.707Z,953
2018-09-25T23:09:18.614Z,953
2018-09-25T23:10:18.528Z,952.9
2018-09-25T23:11:18.865Z,953
2018-09-25T23:12:18.764Z,952.9
2018-09-25T23:13:18.680Z,953
2018-09-25T23:14:18.589Z,953.1
2018-09-25T23:15:18.499Z,953
2018-09-25T23:16:18.412Z,953.1
2018-09-25T23:17:18.316Z,953
2018-09-25T23:18:18.224Z,953
2018-09-25T23:19:18.182Z,953
2018-09-25T23:20:18.150Z,953
2018-09-25T23:21:18.476Z,953
2018-09-25T23:22:18.404Z,953
2018-09-25T23:23:18.321Z,953
2018-09-25T23:24:18.219Z,952.9
2018-09-25T23:25:18.114Z,952.9
2018-09-25T23:26:18.016Z,952.5
2018-09-25T23:27:17.912Z,952.8
2018-09-25T23:28:17.838Z,952.8
2018-09-25T23:29:17.757Z,952.9
2018-09-25T23:30:17.662Z,952.8
2018-09-25T23:31:17.976Z,952.8
2018-09-25T23:32:17.879Z,952.7
2018-09-25T23:33:17.787Z,952.8
2018-09-25T23:34:17.688Z,952.8
2018-09-25T23:35:17.572Z,952.8
2018-09-25T23:36:17.479Z,952.8
2018-09-25T23:37:17.384Z,952.7
2018-09-25T23:38:17.297Z,952.8
2018-09-25T23:39:17.204Z,952.8
2018-09-25T23:40:17.119Z,952.9
2018-09-25T23:41:17.461Z,952.8
2018-09-25T23:42:17.360Z,952.8
2018-09-25T23:43:17.297Z,952.7
2018-09-25T23:44:17.223Z,952.5
2018-09-25T23:45:17.135Z,952.4
2018-09-25T23:46:17.032Z,952.6
2018-09-25T23:47:16.952Z,952.6
2018-09-25T23:48:16.849Z,952.7
2018-09-25T23:49:17.396Z,952.4
2018-09-25T23:50:17.390Z,952.6
2018-09-25T23:51:17.702Z,952.6
2018-09-25T23:52:17.604Z,952.6
2018-09-25T23:53:17.526Z,952.5
2018-09-25T23:54:17.473Z,952.6
2018-09-25T23:55:17.381Z,952.5
2018-09-25T23:56:17.306Z,952.7
2018-09-25T23:57:17.210Z,952.6
2018-09-25T23:58:17.115Z,952.6
2018-09-25T23:59:17.021Z,952.6
